createdAt,value
2023-01-22T00:00:09.967Z,5.30
2023-01-22T00:02:40.138Z,5.60
2023-01-22T00:05:07.559Z,5.82
2023-01-22T00:07:34.526Z,5.53
2023-01-22T00:10:01.373Z,3.55
2023-01-22T00:12:28.412Z,3.08
2023-01-22T00:14:55.599Z,3.78
2023-01-22T00:17:22.670Z,6.53
2023-01-22T00:19:49.619Z,5.20
2023-01-22T00:22:16.550Z,3.50
2023-01-22T00:24:43.728Z,5.05
2023-01-22T00:27:10.895Z,3.83
2023-01-22T00:29:37.938Z,4.88
2023-01-22T00:32:05.110Z,4.70
2023-01-22T00:34:32.132Z,5.13
2023-01-22T00:36:59.016Z,4.55
2023-01-22T00:39:25.790Z,4.30
2023-01-22T00:41:52.624Z,3.10
2023-01-22T00:44:19.585Z,3.28
2023-01-22T00:46:47.022Z,2.80
2023-01-22T00:49:14.066Z,3.25
2023-01-22T00:51:40.932Z,2.80
2023-01-22T00:54:09.560Z,2.90
2023-01-22T00:56:36.419Z,4.93
2023-01-22T00:59:10.139Z,4.53
2023-01-22T01:01:40.146Z,5.13
2023-01-22T01:04:07.033Z,4.38
2023-01-22T01:06:33.985Z,4.53
2023-01-22T01:09:01.835Z,5.32
2023-01-22T01:11:29.822Z,6.07
2023-01-22T01:13:56.948Z,4.82
2023-01-22T01:16:32.323Z,4.32
2023-01-22T01:19:05.994Z,4.55
2023-01-22T01:21:34.093Z,4.25
2023-01-22T01:24:00.904Z,4.60
2023-01-22T01:26:28.281Z,6.70
2023-01-22T01:28:55.671Z,6.15
2023-01-22T01:31:24.338Z,6.18
2023-01-22T01:33:51.359Z,6.32
2023-01-22T01:36:35.318Z,4.68
2023-01-22T01:39:09.820Z,4.75
2023-01-22T01:41:36.739Z,4.68
2023-01-22T01:44:15.385Z,5.22
2023-01-22T01:46:50.484Z,5.15
2023-01-22T01:49:30.174Z,4.85
2023-01-22T01:52:01.015Z,4.13
2023-01-22T01:54:29.083Z,3.85
2023-01-22T01:57:02.160Z,3.50
2023-01-22T01:59:28.971Z,4.35
2023-01-22T02:01:56.334Z,3.42
2023-01-22T02:04:24.510Z,4.22
2023-01-22T02:06:51.361Z,3.17
2023-01-22T02:09:18.420Z,4.20
2023-01-22T02:11:45.632Z,4.97
2023-01-22T02:14:18.439Z,3.63
2023-01-22T02:16:45.315Z,4.03
2023-01-22T02:19:12.436Z,4.05
2023-01-22T02:21:44.732Z,4.35
2023-01-22T02:24:14.341Z,4.38
2023-01-22T02:26:44.045Z,6.32
2023-01-22T02:29:12.757Z,5.28
2023-01-22T02:31:41.436Z,7.03
2023-01-22T02:34:09.940Z,5.60
2023-01-22T02:36:39.268Z,7.32
2023-01-22T02:39:06.718Z,7.28
2023-01-22T02:41:33.684Z,7.47
2023-01-22T02:44:00.754Z,7.30
2023-01-22T02:46:28.208Z,7.70
2023-01-22T02:48:55.136Z,6.38
2023-01-22T02:51:22.174Z,7.28
2023-01-22T02:53:50.558Z,6.90
2023-01-22T02:56:18.377Z,7.00
2023-01-22T02:58:45.238Z,7.05
2023-01-22T03:01:21.747Z,7.03
2023-01-22T03:03:53.635Z,7.95
2023-01-22T03:06:23.138Z,9.18
2023-01-22T03:08:53.479Z,9.73
2023-01-22T03:11:21.138Z,5.13
2023-01-22T03:14:08.419Z,4.28
2023-01-22T03:16:53.976Z,2.53
2023-01-22T03:19:39.754Z,3.22
2023-01-22T03:22:12.577Z,5.47
2023-01-22T03:24:39.628Z,3.17
2023-01-22T03:27:06.574Z,2.70
2023-01-22T03:29:33.972Z,2.42
2023-01-22T03:32:01.394Z,2.47
2023-01-22T03:34:28.465Z,2.85
2023-01-22T03:36:56.967Z,2.30
2023-01-22T03:39:24.041Z,3.17
2023-01-22T03:41:51.313Z,2.70
2023-01-22T03:44:18.329Z,2.53
2023-01-22T03:46:45.255Z,2.67
2023-01-22T03:49:14.490Z,2.63
2023-01-22T03:51:42.859Z,3.08
2023-01-22T03:54:14.166Z,3.15
2023-01-22T03:56:42.066Z,2.60
2023-01-22T03:59:18.611Z,2.80
2023-01-22T04:01:45.690Z,2.95
2023-01-22T04:04:13.050Z,2.95
2023-01-22T04:06:42.100Z,3.00
2023-01-22T04:09:09.160Z,2.70
2023-01-22T04:11:45.588Z,2.60
2023-01-22T04:14:13.828Z,2.60
2023-01-22T04:16:46.657Z,2.10
2023-01-22T04:19:32.022Z,2.28
2023-01-22T04:22:25.060Z,2.42
2023-01-22T04:24:51.989Z,2.20
2023-01-22T04:27:18.801Z,2.08
2023-01-22T04:29:47.837Z,2.92
2023-01-22T04:32:14.714Z,3.13
2023-01-22T04:35:00.047Z,4.95
2023-01-22T04:37:41.904Z,3.60
2023-01-22T04:40:10.074Z,5.60
2023-01-22T04:42:37.346Z,35.28
2023-01-22T04:45:04.971Z,12.13
2023-01-22T04:47:32.339Z,10.45
2023-01-22T04:49:59.401Z,11.00
2023-01-22T04:52:26.714Z,13.50
2023-01-22T04:54:53.957Z,10.25
2023-01-22T04:57:22.015Z,8.80
2023-01-22T04:59:50.633Z,6.28
2023-01-22T05:02:17.443Z,3.90
2023-01-22T05:04:44.890Z,3.25
2023-01-22T05:07:13.428Z,3.25
2023-01-22T05:09:40.219Z,5.45
2023-01-22T05:12:07.071Z,5.03
2023-01-22T05:14:40.010Z,5.47
2023-01-22T05:17:07.801Z,5.63
2023-01-22T05:19:35.679Z,6.32
2023-01-22T05:22:05.792Z,7.70
2023-01-22T05:24:33.181Z,7.40
2023-01-22T05:27:00.667Z,6.22
2023-01-22T05:29:34.047Z,6.35
2023-01-22T05:32:19.453Z,9.15
2023-01-22T05:34:52.785Z,5.68
2023-01-22T05:37:20.089Z,7.75
2023-01-22T05:39:46.917Z,8.48
2023-01-22T05:42:16.591Z,15.15
2023-01-22T05:44:46.620Z,6.93
2023-01-22T05:47:14.488Z,7.28
2023-01-22T05:50:01.721Z,6.40
2023-01-22T05:52:29.137Z,4.72
2023-01-22T05:54:56.426Z,2.60
2023-01-22T05:57:23.533Z,2.67
2023-01-22T05:59:50.343Z,3.65
2023-01-22T06:02:17.164Z,2.65
2023-01-22T06:04:44.927Z,3.20
2023-01-22T06:07:22.699Z,2.80
2023-01-22T06:09:49.715Z,2.15
2023-01-22T06:12:18.559Z,2.70
2023-01-22T06:14:46.637Z,2.63
2023-01-22T06:17:14.006Z,2.10
2023-01-22T06:20:00.348Z,2.58
2023-01-22T06:22:27.175Z,3.58
2023-01-22T06:24:57.310Z,2.58
2023-01-22T06:27:29.314Z,3.47
2023-01-22T06:30:00.233Z,3.22
2023-01-22T06:32:27.385Z,2.63
2023-01-22T06:34:54.162Z,3.55
2023-01-22T06:37:23.001Z,2.55
2023-01-22T06:39:51.247Z,2.22
2023-01-22T06:42:25.342Z,2.97
2023-01-22T06:44:52.450Z,3.47
2023-01-22T06:47:21.544Z,3.72
2023-01-22T06:49:48.632Z,3.03
2023-01-22T06:52:15.945Z,3.33
2023-01-22T06:54:42.936Z,2.83
2023-01-22T06:57:10.208Z,2.60
2023-01-22T06:59:39.280Z,5.80
2023-01-22T07:02:06.530Z,5.35
2023-01-22T07:04:33.482Z,3.53
2023-01-22T07:07:00.370Z,4.20
2023-01-22T07:09:27.148Z,3.72
2023-01-22T07:11:54.020Z,4.10
2023-01-22T07:14:35.675Z,5.18
2023-01-22T07:17:03.417Z,5.38
2023-01-22T07:19:30.324Z,4.95
2023-01-22T07:21:57.096Z,3.50
2023-01-22T07:24:23.877Z,4.32
2023-01-22T07:26:50.718Z,3.10
2023-01-22T07:29:17.462Z,4.13
2023-01-22T07:31:44.444Z,2.95
2023-01-22T07:34:11.460Z,3.53
2023-01-22T07:36:38.216Z,4.30
2023-01-22T07:39:06.334Z,4.78
2023-01-22T07:41:33.183Z,4.97
2023-01-22T07:44:00.640Z,4.32
2023-01-22T07:46:28.097Z,4.50
2023-01-22T07:48:54.943Z,4.28
2023-01-22T07:51:21.889Z,6.60
2023-01-22T07:53:48.710Z,6.20
2023-01-22T07:56:15.522Z,6.47
2023-01-22T07:58:42.276Z,3.88
2023-01-22T08:01:11.304Z,3.70
2023-01-22T08:03:38.999Z,5.85
2023-01-22T08:06:10.239Z,5.38
2023-01-22T08:08:37.876Z,4.38
2023-01-22T08:11:05.136Z,4.80
2023-01-22T08:13:32.372Z,3.45
2023-01-22T08:15:59.204Z,3.55
2023-01-22T08:18:26.192Z,4.75
2023-01-22T08:20:53.265Z,7.30
2023-01-22T08:23:21.889Z,9.63
2023-01-22T08:25:48.870Z,5.88
2023-01-22T08:28:16.065Z,3.35
2023-01-22T08:30:46.553Z,4.18
2023-01-22T08:33:15.745Z,4.25
2023-01-22T08:35:42.748Z,3.30
2023-01-22T08:38:09.851Z,3.47
2023-01-22T08:40:38.057Z,5.10
2023-01-22T08:43:05.062Z,5.35
2023-01-22T08:45:31.961Z,4.03
2023-01-22T08:48:00.089Z,3.13
2023-01-22T08:50:29.332Z,3.97
2023-01-22T08:52:58.071Z,3.90
2023-01-22T08:55:27.720Z,3.63
2023-01-22T08:57:58.749Z,2.22
2023-01-22T09:00:25.703Z,4.25
2023-01-22T09:02:56.538Z,4.43
2023-01-22T09:05:23.346Z,3.55
2023-01-22T09:07:50.171Z,4.40
2023-01-22T09:10:19.304Z,5.97
2023-01-22T09:12:47.443Z,7.88
2023-01-22T09:15:15.212Z,5.97
2023-01-22T09:17:42.639Z,4.63
2023-01-22T09:20:10.144Z,5.65
2023-01-22T09:22:36.989Z,4.60
2023-01-22T09:25:05.209Z,4.20
2023-01-22T09:27:32.481Z,2.97
2023-01-22T09:30:00.021Z,3.40
2023-01-22T09:32:27.249Z,4.10
2023-01-22T09:34:54.388Z,4.47
2023-01-22T09:37:21.668Z,3.42
2023-01-22T09:39:51.583Z,3.08
2023-01-22T09:42:32.413Z,2.55
2023-01-22T09:45:05.311Z,4.40
2023-01-22T09:47:54.699Z,3.17
2023-01-22T09:50:28.438Z,6.07
2023-01-22T09:52:59.279Z,5.15
2023-01-22T09:55:31.223Z,4.10
2023-01-22T09:58:03.069Z,4.10
2023-01-22T10:00:44.927Z,8.25
2023-01-22T10:03:27.034Z,6.10
2023-01-22T10:05:59.364Z,4.45
2023-01-22T10:08:33.080Z,4.93
2023-01-22T10:11:01.226Z,7.55
2023-01-22T10:13:36.455Z,8.18
2023-01-22T10:16:04.387Z,8.30
2023-01-22T10:18:40.281Z,6.82
2023-01-22T10:21:21.040Z,13.18
2023-01-22T10:23:50.266Z,9.73
2023-01-22T10:26:52.747Z,6.68
2023-01-22T10:29:31.831Z,13.40
2023-01-22T10:32:01.525Z,5.85
2023-01-22T10:34:36.609Z,4.40
2023-01-22T10:37:15.887Z,6.20
2023-01-22T10:39:48.378Z,6.18
2023-01-22T10:42:20.679Z,8.65
2023-01-22T10:44:47.962Z,12.85
2023-01-22T10:47:21.158Z,3.85
2023-01-22T10:49:49.398Z,9.30
2023-01-22T10:52:24.545Z,9.57
2023-01-22T10:54:55.539Z,5.90
2023-01-22T10:57:32.457Z,3.67
2023-01-22T11:00:06.046Z,3.28
2023-01-22T11:02:35.643Z,2.80
2023-01-22T11:05:24.082Z,4.05
2023-01-22T11:07:59.253Z,2.17
2023-01-22T11:10:53.072Z,5.20
2023-01-22T11:13:28.464Z,2.65
2023-01-22T11:16:19.226Z,3.10
2023-01-22T11:18:55.455Z,4.15
2023-01-22T11:21:39.651Z,4.70
2023-01-22T11:24:37.933Z,4.43
2023-01-22T11:27:04.691Z,4.43
2023-01-22T11:29:43.862Z,3.30
2023-01-22T11:32:19.637Z,3.05
2023-01-22T11:34:49.468Z,3.00
2023-01-22T11:37:30.444Z,3.20
2023-01-22T11:39:57.575Z,4.10
2023-01-22T11:43:18.733Z,4.97
2023-01-22T11:46:20.800Z,6.97
2023-01-22T11:49:10.580Z,5.40
2023-01-22T11:52:05.960Z,6.32
2023-01-22T11:54:49.517Z,4.20
2023-01-22T11:57:23.124Z,6.25
2023-01-22T12:00:27.521Z,4.68
2023-01-22T12:03:52.121Z,3.42
2023-01-22T12:06:38.708Z,5.45
2023-01-22T12:09:35.513Z,4.30
2023-01-22T12:12:33.550Z,3.78
2023-01-22T12:15:15.568Z,2.83
2023-01-22T12:18:31.420Z,3.33
2023-01-22T12:21:14.173Z,1.73
2023-01-22T12:23:49.511Z,2.22
2023-01-22T12:26:29.755Z,4.63
2023-01-22T12:29:06.698Z,3.75
2023-01-22T12:31:43.849Z,1.77
2023-01-22T12:34:20.429Z,3.80
2023-01-22T12:36:58.112Z,2.70
2023-01-22T12:39:36.419Z,2.20
2023-01-22T12:42:16.923Z,1.95
2023-01-22T12:45:04.715Z,3.10
2023-01-22T12:47:43.751Z,11.07
2023-01-22T12:50:22.959Z,7.32
2023-01-22T12:53:05.081Z,4.80
2023-01-22T12:55:38.253Z,4.80
2023-01-22T12:58:17.745Z,4.65
2023-01-22T13:00:44.662Z,3.70
2023-01-22T13:03:33.262Z,3.25
2023-01-22T13:06:03.131Z,3.50
2023-01-22T13:08:42.639Z,2.05
2023-01-22T13:11:26.794Z,4.20
2023-01-22T13:14:22.394Z,2.58
2023-01-22T13:17:23.733Z,3.40
2023-01-22T13:19:52.030Z,4.40
2023-01-22T13:22:25.182Z,5.20
2023-01-22T13:24:54.500Z,3.70
2023-01-22T13:27:34.247Z,4.82
2023-01-22T13:30:16.470Z,3.35
2023-01-22T13:32:43.719Z,3.15
2023-01-22T13:35:13.743Z,4.20
2023-01-22T13:37:44.090Z,3.65
2023-01-22T13:40:37.100Z,6.60
2023-01-22T13:43:17.084Z,5.63
2023-01-22T13:45:44.045Z,6.95
2023-01-22T13:48:17.996Z,5.13
2023-01-22T13:50:54.243Z,4.32
2023-01-22T13:53:31.984Z,3.65
2023-01-22T13:56:00.113Z,2.95
2023-01-22T13:58:48.255Z,3.38
2023-01-22T14:01:33.384Z,4.72
2023-01-22T14:04:02.545Z,8.30
2023-01-22T14:06:30.488Z,3.40
2023-01-22T14:08:58.406Z,3.90
2023-01-22T14:11:25.316Z,3.60
2023-01-22T14:13:53.318Z,3.08
2023-01-22T14:16:20.670Z,5.78
2023-01-22T14:18:47.628Z,4.30
2023-01-22T14:21:15.085Z,3.05
2023-01-22T14:23:42.846Z,3.28
2023-01-22T14:26:09.977Z,6.93
2023-01-22T14:28:37.608Z,3.20
2023-01-22T14:31:05.177Z,2.70
2023-01-22T14:33:33.937Z,3.60
2023-01-22T14:36:01.225Z,3.10
2023-01-22T14:38:29.343Z,4.55
2023-01-22T14:41:30.732Z,8.75
2023-01-22T14:43:59.161Z,5.60
2023-01-22T14:46:26.045Z,7.13
2023-01-22T14:48:53.233Z,7.82
2023-01-22T14:51:20.159Z,8.85
2023-01-22T14:53:47.565Z,18.73
2023-01-22T14:56:36.954Z,37.05
2023-01-22T14:59:04.691Z,18.02
2023-01-22T15:01:31.477Z,20.40
2023-01-22T15:03:58.264Z,13.25
2023-01-22T15:06:25.291Z,14.52
2023-01-22T15:08:52.331Z,17.85
2023-01-22T15:11:19.181Z,16.27
2023-01-22T15:13:46.060Z,16.02
2023-01-22T15:16:13.836Z,13.70
2023-01-22T15:18:40.940Z,11.30
2023-01-22T15:21:08.316Z,10.68
2023-01-22T15:23:48.227Z,14.15
2023-01-22T15:26:27.914Z,14.63
2023-01-22T15:28:55.128Z,22.17
2023-01-22T15:31:22.035Z,17.58
2023-01-22T15:33:49.759Z,17.48
2023-01-22T15:36:16.535Z,17.35
2023-01-22T15:38:43.296Z,17.77
2023-01-22T15:41:18.678Z,18.10
2023-01-22T15:43:50.841Z,17.73
2023-01-22T15:46:19.977Z,17.92
2023-01-22T15:48:47.493Z,21.27
2023-01-22T15:51:15.523Z,22.52
2023-01-22T15:53:48.711Z,28.08
2023-01-22T15:56:15.735Z,29.70
2023-01-22T15:58:42.533Z,31.75
2023-01-22T16:01:09.480Z,33.83
2023-01-22T16:03:36.793Z,32.47
2023-01-22T16:06:15.797Z,34.70
2023-01-22T16:08:45.931Z,34.47
2023-01-22T16:11:14.004Z,36.35
2023-01-22T16:13:48.266Z,40.08
2023-01-22T16:16:17.675Z,43.13
2023-01-22T16:18:45.320Z,54.30
2023-01-22T16:21:17.911Z,69.93
2023-01-22T16:23:46.704Z,67.05
2023-01-22T16:26:17.019Z,51.72
2023-01-22T16:28:45.679Z,56.47
2023-01-22T16:31:16.256Z,54.53
2023-01-22T16:33:45.953Z,68.25
2023-01-22T16:36:15.793Z,75.30
2023-01-22T16:38:42.966Z,45.35
2023-01-22T16:41:24.410Z,31.80
2023-01-22T16:43:53.577Z,19.63
2023-01-22T16:49:47.494Z,20.05
2023-01-22T16:52:22.492Z,26.48
2023-01-22T16:54:50.096Z,16.55
2023-01-22T16:57:18.101Z,15.23
2023-01-22T16:59:45.144Z,15.90
2023-01-22T17:02:14.863Z,18.52
2023-01-22T17:04:48.419Z,22.55
2023-01-22T17:07:31.955Z,13.07
2023-01-22T17:10:00.114Z,16.60
2023-01-22T17:12:27.492Z,10.57
2023-01-22T17:14:54.675Z,10.68
2023-01-22T17:17:21.614Z,9.75
2023-01-22T17:19:48.578Z,9.45
2023-01-22T17:22:18.234Z,11.60
2023-01-22T17:24:55.304Z,10.45
2023-01-22T17:27:22.200Z,14.85
2023-01-22T17:29:49.157Z,15.18
2023-01-22T17:32:15.921Z,14.82
2023-01-22T17:34:42.736Z,15.15
2023-01-22T17:37:11.199Z,12.10
2023-01-22T17:39:38.990Z,14.88
2023-01-22T17:42:06.152Z,14.07
2023-01-22T17:44:34.960Z,32.15
2023-01-22T17:47:02.967Z,25.55
2023-01-22T17:49:30.496Z,25.13
2023-01-22T17:51:58.502Z,20.83
2023-01-22T17:54:25.572Z,20.55
2023-01-22T17:56:54.550Z,16.33
2023-01-22T17:59:22.988Z,17.23
2023-01-22T18:01:50.323Z,14.70
2023-01-22T18:04:17.433Z,15.32
2023-01-22T18:06:44.425Z,10.50
2023-01-22T18:09:12.336Z,13.40
2023-01-22T18:11:40.983Z,12.80
2023-01-22T18:14:11.780Z,11.38
2023-01-22T18:16:41.052Z,11.68
2023-01-22T18:19:08.713Z,14.43
2023-01-22T18:21:37.514Z,12.20
2023-01-22T18:24:06.664Z,14.07
2023-01-22T18:26:34.457Z,13.85
2023-01-22T18:29:02.087Z,12.90
2023-01-22T18:31:29.883Z,11.80
2023-01-22T18:34:02.201Z,14.73
2023-01-22T18:36:37.501Z,10.93
2023-01-22T18:39:11.118Z,10.63
2023-01-22T18:41:40.128Z,12.05
2023-01-22T18:44:08.213Z,11.90
2023-01-22T18:46:41.345Z,13.63
2023-01-22T18:49:12.693Z,13.07
2023-01-22T18:54:09.240Z,11.32
2023-01-22T18:56:37.598Z,12.20
2023-01-22T18:59:05.751Z,10.90
2023-01-22T19:01:35.573Z,8.95
2023-01-22T19:04:06.381Z,11.82
2023-01-22T19:06:37.068Z,11.52
2023-01-22T19:09:05.598Z,10.32
2023-01-22T19:11:37.754Z,9.27
2023-01-22T19:14:07.271Z,12.73
2023-01-22T19:16:34.474Z,18.58
2023-01-22T19:19:04.604Z,12.60
2023-01-22T19:21:31.726Z,13.70
2023-01-22T19:24:00.578Z,13.52
2023-01-22T19:26:33.359Z,12.48
2023-01-22T19:29:03.649Z,10.07
2023-01-22T19:31:36.934Z,13.93
2023-01-22T19:34:05.376Z,9.20
2023-01-22T19:36:34.410Z,8.13
2023-01-22T19:39:04.309Z,9.20
2023-01-22T19:41:31.796Z,8.98
2023-01-22T19:44:01.327Z,8.85
2023-01-22T19:46:28.882Z,10.32
2023-01-22T19:48:56.520Z,8.55
2023-01-22T19:51:26.685Z,9.07
2023-01-22T19:53:54.714Z,11.45
2023-01-22T19:56:24.978Z,9.23
2023-01-22T19:58:54.167Z,10.73
2023-01-22T20:01:22.088Z,10.73
2023-01-22T20:03:49.355Z,10.48
2023-01-22T20:06:18.360Z,10.15
2023-01-22T20:08:46.193Z,10.38
2023-01-22T20:11:14.108Z,10.50
2023-01-22T20:13:43.150Z,11.13
2023-01-22T20:16:22.056Z,10.50
2023-01-22T20:18:50.307Z,11.88
2023-01-22T20:21:19.142Z,14.30
2023-01-22T20:23:47.681Z,18.60
2023-01-22T20:26:16.037Z,12.68
2023-01-22T20:28:43.041Z,10.60
2023-01-22T20:31:23.577Z,12.10
2023-01-22T20:33:56.972Z,8.80
2023-01-22T20:36:27.862Z,13.18
2023-01-22T20:38:55.046Z,13.27
2023-01-22T20:41:23.739Z,13.93
2023-01-22T20:43:51.003Z,12.18
2023-01-22T20:46:22.871Z,13.05
2023-01-22T20:48:51.920Z,16.85
2023-01-22T20:51:22.363Z,13.32
2023-01-22T20:53:51.373Z,13.97
2023-01-22T20:56:25.483Z,11.50
2023-01-22T20:59:01.354Z,12.10
2023-01-22T21:01:28.884Z,12.88
2023-01-22T21:03:57.307Z,12.73
2023-01-22T21:06:26.054Z,11.32
2023-01-22T21:08:56.098Z,11.73
2023-01-22T21:11:24.229Z,12.07
2023-01-22T21:13:52.504Z,11.60
2023-01-22T21:16:29.558Z,15.10
2023-01-22T21:19:01.359Z,11.00
2023-01-22T21:21:30.041Z,12.40
2023-01-22T21:23:58.231Z,13.20
2023-01-22T21:26:28.004Z,12.35
2023-01-22T21:29:08.619Z,12.85
2023-01-22T21:31:37.027Z,11.63
2023-01-22T21:34:05.811Z,10.18
2023-01-22T21:36:38.594Z,11.27
2023-01-22T21:39:08.476Z,11.20
2023-01-22T21:41:35.834Z,11.02
2023-01-22T21:44:21.068Z,10.30
2023-01-22T21:46:48.218Z,9.82
2023-01-22T21:49:24.405Z,12.48
2023-01-22T21:52:06.408Z,11.10
2023-01-22T21:54:35.596Z,9.48
2023-01-22T21:57:03.428Z,8.55
2023-01-22T21:59:30.347Z,9.02
2023-01-22T22:01:57.295Z,8.35
2023-01-22T22:04:26.967Z,9.40
2023-01-22T22:06:54.704Z,9.80
2023-01-22T22:09:25.052Z,10.55
2023-01-22T22:11:56.661Z,9.98
2023-01-22T22:14:25.627Z,10.07
2023-01-22T22:16:53.044Z,9.07
2023-01-22T22:19:20.836Z,10.23
2023-01-22T22:21:48.402Z,11.38
2023-01-22T22:24:15.213Z,9.38
2023-01-22T22:26:42.063Z,12.13
2023-01-22T22:29:10.148Z,8.98
2023-01-22T22:31:38.264Z,9.73
2023-01-22T22:34:05.490Z,10.27
2023-01-22T22:36:32.926Z,8.75
2023-01-22T22:39:01.166Z,8.70
2023-01-22T22:41:30.757Z,7.82
2023-01-22T22:43:58.254Z,8.57
2023-01-22T22:46:28.297Z,9.27
2023-01-22T22:48:57.102Z,9.65
2023-01-22T22:51:31.556Z,10.20
2023-01-22T22:54:01.940Z,9.70
2023-01-22T22:56:29.624Z,9.13
2023-01-22T22:58:58.749Z,9.10
2023-01-22T23:01:26.873Z,7.70
2023-01-22T23:03:54.224Z,7.30
2023-01-22T23:06:23.792Z,6.75
2023-01-22T23:08:53.225Z,7.60
2023-01-22T23:11:24.674Z,7.85
2023-01-22T23:13:52.528Z,7.95
2023-01-22T23:16:22.737Z,7.70
2023-01-22T23:18:51.981Z,6.82
2023-01-22T23:21:24.419Z,7.32
2023-01-22T23:23:52.833Z,7.03
2023-01-22T23:26:28.283Z,7.07
2023-01-22T23:28:57.976Z,7.95
2023-01-22T23:31:26.682Z,7.97
2023-01-22T23:33:55.341Z,8.45
2023-01-22T23:36:22.985Z,7.18
2023-01-22T23:38:50.076Z,7.47
2023-01-22T23:41:18.671Z,6.65
2023-01-22T23:43:46.116Z,6.45
2023-01-22T23:46:15.594Z,6.65
2023-01-22T23:48:42.539Z,6.20
2023-01-22T23:51:11.494Z,5.68
2023-01-22T23:53:40.622Z,6.53
2023-01-22T23:56:09.390Z,6.68
2023-01-22T23:58:36.496Z,6.30
